createdAt,value
2023-05-11T00:00:53.821Z,3.18
2023-05-11T00:01:53.860Z,3.17
2023-05-11T00:02:53.968Z,2.51
2023-05-11T00:03:54.039Z,2.42
2023-05-11T00:04:53.902Z,2.43
2023-05-11T00:05:53.917Z,2.38
2023-05-11T00:06:53.977Z,2.46
2023-05-11T00:07:54.007Z,2.97
2023-05-11T00:08:54.035Z,1.75
2023-05-11T00:09:54.048Z,1.60
2023-05-11T00:10:54.099Z,1.71
2023-05-11T00:11:54.131Z,2.35
2023-05-11T00:12:54.201Z,2.03
2023-05-11T00:13:54.220Z,1.14
2023-05-11T00:14:54.253Z,1.30
2023-05-11T00:15:54.297Z,1.43
2023-05-11T00:16:54.287Z,1.57
2023-05-11T00:17:54.402Z,2.17
2023-05-11T00:18:54.760Z,2.27
2023-05-11T00:19:54.380Z,2.20
2023-05-11T00:20:54.387Z,2.24
2023-05-11T00:21:54.423Z,2.34
2023-05-11T00:22:54.472Z,2.37
2023-05-11T00:23:54.473Z,2.25
2023-05-11T00:24:54.507Z,1.86
2023-05-11T00:25:54.555Z,1.37
2023-05-11T00:26:54.566Z,1.24
2023-05-11T00:27:54.568Z,1.06
2023-05-11T00:28:54.648Z,0.79
2023-05-11T00:29:54.659Z,0.52
2023-05-11T00:30:54.731Z,0.43
2023-05-11T00:31:54.831Z,0.43
2023-05-11T00:32:54.782Z,0.43
2023-05-11T00:33:54.850Z,0.44
2023-05-11T00:34:54.851Z,0.51
2023-05-11T00:35:54.857Z,0.50
2023-05-11T00:36:54.909Z,0.69
2023-05-11T00:37:54.918Z,0.85
2023-05-11T00:38:54.973Z,0.76
2023-05-11T00:39:54.998Z,0.92
2023-05-11T00:40:55.006Z,1.22
2023-05-11T00:41:55.026Z,1.24
2023-05-11T00:42:55.032Z,1.22
2023-05-11T00:43:55.043Z,1.10
2023-05-11T00:44:55.090Z,1.15
2023-05-11T00:45:55.128Z,0.99
2023-05-11T00:46:55.179Z,0.68
2023-05-11T00:47:55.219Z,0.49
2023-05-11T00:48:55.183Z,0.46
2023-05-11T00:49:55.263Z,0.40
2023-05-11T00:50:55.276Z,0.48
2023-05-11T00:51:55.289Z,0.48
2023-05-11T00:52:55.313Z,0.57
2023-05-11T00:53:55.342Z,0.60
2023-05-11T00:54:55.383Z,0.64
2023-05-11T00:55:55.394Z,0.65
2023-05-11T00:56:55.438Z,0.66
2023-05-11T00:57:55.501Z,0.58
2023-05-11T00:58:55.525Z,0.71
2023-05-11T00:59:55.514Z,0.69
2023-05-11T01:00:55.583Z,0.62
2023-05-11T01:01:55.645Z,0.47
2023-05-11T01:02:55.824Z,0.50
2023-05-11T01:03:55.697Z,0.50
2023-05-11T01:04:55.692Z,0.64
2023-05-11T01:05:55.722Z,0.68
2023-05-11T01:06:55.774Z,0.70
2023-05-11T01:07:55.785Z,0.72
2023-05-11T01:08:55.819Z,0.83
2023-05-11T01:09:55.836Z,0.88
2023-05-11T01:10:55.857Z,0.90
2023-05-11T01:11:55.894Z,0.83
2023-05-11T01:12:55.907Z,0.80
2023-05-11T01:13:55.962Z,0.82
2023-05-11T01:14:55.991Z,0.78
2023-05-11T01:15:56.028Z,0.83
2023-05-11T01:16:56.207Z,0.88
2023-05-11T01:17:56.128Z,0.87
2023-05-11T01:18:56.216Z,0.93
2023-05-11T01:19:56.150Z,0.88
2023-05-11T01:20:56.176Z,0.93
2023-05-11T01:21:56.221Z,0.80
2023-05-11T01:22:56.223Z,0.72
2023-05-11T01:23:56.217Z,0.60
2023-05-11T01:24:56.248Z,0.86
2023-05-11T01:25:56.241Z,0.75
2023-05-11T01:26:56.296Z,0.73
2023-05-11T01:27:56.342Z,0.88
2023-05-11T01:28:56.367Z,1.07
2023-05-11T01:29:57.073Z,0.91
2023-05-11T01:30:56.437Z,1.24
2023-05-11T01:31:56.533Z,2.22
2023-05-11T01:32:56.526Z,2.56
2023-05-11T01:33:56.546Z,1.87
2023-05-11T01:34:56.558Z,1.39
2023-05-11T01:35:56.603Z,1.59
2023-05-11T01:36:56.631Z,1.77
2023-05-11T01:37:56.624Z,2.00
2023-05-11T01:38:56.665Z,1.39
2023-05-11T01:39:56.721Z,1.08
2023-05-11T01:40:56.732Z,1.21
2023-05-11T01:41:56.780Z,1.91
2023-05-11T01:42:56.794Z,2.63
2023-05-11T01:43:56.787Z,2.30
2023-05-11T01:44:56.829Z,2.34
2023-05-11T01:45:56.877Z,1.66
2023-05-11T01:46:56.871Z,1.22
2023-05-11T01:47:56.950Z,0.89
2023-05-11T01:48:56.967Z,0.68
2023-05-11T01:49:56.971Z,0.55
2023-05-11T01:50:56.974Z,0.50
2023-05-11T01:51:57.057Z,0.51
2023-05-11T01:52:57.074Z,0.51
2023-05-11T01:53:57.108Z,0.68
2023-05-11T01:54:57.132Z,0.66
2023-05-11T01:55:57.195Z,0.73
2023-05-11T01:56:57.201Z,0.65
2023-05-11T01:57:57.251Z,0.56
2023-05-11T01:58:57.243Z,0.50
2023-05-11T01:59:57.308Z,0.48
2023-05-11T02:00:57.328Z,0.54
2023-05-11T02:01:57.581Z,0.63
2023-05-11T02:02:57.462Z,0.87
2023-05-11T02:03:57.447Z,0.99
2023-05-11T02:04:57.405Z,0.89
2023-05-11T02:05:57.461Z,0.93
2023-05-11T02:06:57.498Z,1.05
2023-05-11T02:07:57.547Z,1.00
2023-05-11T02:08:57.556Z,0.92
2023-05-11T02:09:57.607Z,1.05
2023-05-11T02:10:57.644Z,1.39
2023-05-11T02:11:57.674Z,1.26
2023-05-11T02:12:57.665Z,1.31
2023-05-11T02:13:57.726Z,1.24
2023-05-11T02:14:57.757Z,1.16
2023-05-11T02:15:57.810Z,1.08
2023-05-11T02:16:57.824Z,1.18
2023-05-11T02:17:57.899Z,1.16
2023-05-11T02:18:57.936Z,1.04
2023-05-11T02:19:57.873Z,0.93
2023-05-11T02:20:57.899Z,0.83
2023-05-11T02:21:57.931Z,0.84
2023-05-11T02:22:57.959Z,0.87
2023-05-11T02:23:58.026Z,0.76
2023-05-11T02:24:58.009Z,0.71
2023-05-11T02:25:58.035Z,0.68
2023-05-11T02:26:58.068Z,0.71
2023-05-11T02:27:58.103Z,0.62
2023-05-11T02:28:58.148Z,0.62
2023-05-11T02:29:58.161Z,0.57
2023-05-11T02:30:58.244Z,0.52
2023-05-11T02:31:58.248Z,0.59
2023-05-11T02:32:58.319Z,0.69
2023-05-11T02:33:58.273Z,0.66
2023-05-11T02:34:58.351Z,0.58
2023-05-11T02:35:58.369Z,0.53
2023-05-11T02:36:58.419Z,0.55
2023-05-11T02:37:58.414Z,0.64
2023-05-11T02:38:58.425Z,0.66
2023-05-11T02:39:58.483Z,0.59
2023-05-11T02:40:58.493Z,0.51
2023-05-11T02:41:58.487Z,0.50
2023-05-11T02:42:58.528Z,0.51
2023-05-11T02:43:58.610Z,0.41
2023-05-11T02:44:58.628Z,0.34
2023-05-11T02:45:58.659Z,0.38
2023-05-11T02:46:58.784Z,0.50
2023-05-11T02:47:58.769Z,0.64
2023-05-11T02:48:58.741Z,0.82
2023-05-11T02:49:58.795Z,0.75
2023-05-11T02:50:58.821Z,0.82
2023-05-11T02:51:58.871Z,0.53
2023-05-11T02:52:58.864Z,0.50
2023-05-11T02:53:58.899Z,0.57
2023-05-11T02:54:58.948Z,0.59
2023-05-11T02:55:58.964Z,0.60
2023-05-11T02:56:59.002Z,0.82
2023-05-11T02:57:59.067Z,0.94
2023-05-11T02:58:59.053Z,1.29
2023-05-11T02:59:59.094Z,1.60
2023-05-11T03:00:59.106Z,1.73
2023-05-11T03:01:59.237Z,1.41
2023-05-11T03:02:59.263Z,1.06
2023-05-11T03:03:59.226Z,1.02
2023-05-11T03:04:59.257Z,1.27
2023-05-11T03:05:59.307Z,1.50
2023-05-11T03:06:59.321Z,1.45
2023-05-11T03:07:59.320Z,1.40
2023-05-11T03:08:59.369Z,1.60
2023-05-11T03:09:59.415Z,1.58
2023-05-11T03:10:59.430Z,1.74
2023-05-11T03:11:59.498Z,1.91
2023-05-11T03:12:59.574Z,2.04
2023-05-11T03:13:59.550Z,2.09
2023-05-11T03:14:59.588Z,2.31
2023-05-11T03:15:59.632Z,2.64
2023-05-11T03:16:59.716Z,2.95
2023-05-11T03:17:59.736Z,3.32
2023-05-11T03:18:59.816Z,4.15
2023-05-11T03:19:59.755Z,5.28
2023-05-11T03:20:59.797Z,6.75
2023-05-11T03:21:59.845Z,5.21
2023-05-11T03:22:59.884Z,3.56
2023-05-11T03:23:59.877Z,2.64
2023-05-11T03:24:59.938Z,2.95
2023-05-11T03:25:59.962Z,3.26
2023-05-11T03:27:00.006Z,3.77
2023-05-11T03:28:00.006Z,3.61
2023-05-11T03:29:00.072Z,3.86
2023-05-11T03:30:00.078Z,3.57
2023-05-11T03:31:00.114Z,4.10
2023-05-11T03:32:00.151Z,4.37
2023-05-11T03:33:00.243Z,4.73
2023-05-11T03:34:00.188Z,5.71
2023-05-11T03:35:00.213Z,6.93
2023-05-11T03:36:00.227Z,5.55
2023-05-11T03:37:00.281Z,6.43
2023-05-11T03:38:00.286Z,9.46
2023-05-11T03:39:00.328Z,11.62
2023-05-11T03:40:00.347Z,9.22
2023-05-11T03:41:00.400Z,6.98
2023-05-11T03:42:00.405Z,7.31
2023-05-11T03:43:00.454Z,9.74
2023-05-11T03:44:00.474Z,13.96
2023-05-11T03:45:00.501Z,15.24
2023-05-11T03:46:00.563Z,17.29
2023-05-11T03:47:00.577Z,21.63
2023-05-11T03:48:00.676Z,22.65
2023-05-11T03:49:00.619Z,41.42
2023-05-11T03:50:00.666Z,53.09
2023-05-11T03:51:00.759Z,66.49
2023-05-11T03:52:00.717Z,90.35
2023-05-11T03:53:00.740Z,103.78
2023-05-11T03:54:00.818Z,63.66
2023-05-11T03:55:00.851Z,45.22
2023-05-11T03:56:00.867Z,64.09
2023-05-11T03:57:00.903Z,86.79
2023-05-11T03:58:02.394Z,96.88
2023-05-11T03:59:00.922Z,96.21
2023-05-11T04:00:00.910Z,82.45
2023-05-11T04:01:00.929Z,72.50
2023-05-11T04:02:00.893Z,59.04
2023-05-11T04:03:01.068Z,52.44
2023-05-11T04:04:01.017Z,54.91
2023-05-11T04:05:00.897Z,59.63
2023-05-11T04:06:00.888Z,64.61
2023-05-11T04:07:00.911Z,73.48
2023-05-11T04:08:00.876Z,89.82
2023-05-11T04:09:00.879Z,78.55
2023-05-11T04:10:00.904Z,79.74
2023-05-11T04:11:00.844Z,82.05
2023-05-11T04:12:00.824Z,83.42
2023-05-11T04:13:00.844Z,98.36
2023-05-11T04:14:00.826Z,123.00
2023-05-11T04:15:00.886Z,135.53
2023-05-11T04:16:00.851Z,151.04
2023-05-11T04:17:00.783Z,151.73
2023-05-11T04:18:00.872Z,140.03
2023-05-11T04:19:00.903Z,201.57
2023-05-11T04:20:00.863Z,214.94
2023-05-11T04:21:00.772Z,205.77
2023-05-11T04:22:00.777Z,187.69
2023-05-11T04:23:00.792Z,217.44
2023-05-11T04:24:00.764Z,238.33
2023-05-11T04:25:00.765Z,288.49
2023-05-11T04:26:00.774Z,288.09
2023-05-11T04:27:00.752Z,270.03
2023-05-11T04:28:00.744Z,243.76
2023-05-11T04:29:00.762Z,221.22
2023-05-11T04:30:00.729Z,181.01
2023-05-11T04:31:00.796Z,116.92
2023-05-11T04:32:00.873Z,61.76
2023-05-11T04:33:00.778Z,42.09
2023-05-11T04:34:00.732Z,38.73
2023-05-11T04:35:00.673Z,53.13
2023-05-11T04:36:00.736Z,80.33
2023-05-11T04:37:00.673Z,266.28
2023-05-11T04:38:00.686Z,437.33
2023-05-11T04:39:00.685Z,307.97
2023-05-11T04:40:00.656Z,130.94
2023-05-11T04:41:00.668Z,115.65
2023-05-11T04:42:00.667Z,65.84
2023-05-11T04:43:00.643Z,76.36
2023-05-11T04:44:00.651Z,78.30
2023-05-11T04:45:00.636Z,121.00
2023-05-11T04:46:00.634Z,198.71
2023-05-11T04:47:00.731Z,182.21
2023-05-11T04:48:00.661Z,201.12
2023-05-11T04:49:00.620Z,157.27
2023-05-11T04:50:00.635Z,144.23
2023-05-11T04:51:00.614Z,160.63
2023-05-11T04:52:00.608Z,213.51
2023-05-11T04:53:00.625Z,214.63
2023-05-11T04:54:00.660Z,164.21
2023-05-11T04:55:00.700Z,152.96
2023-05-11T04:56:00.699Z,134.61
2023-05-11T04:57:00.688Z,118.38
2023-05-11T04:58:00.769Z,108.69
2023-05-11T04:59:01.611Z,122.25
2023-05-11T05:00:00.819Z,156.20
2023-05-11T05:01:00.897Z,205.65
2023-05-11T05:02:00.895Z,193.28
2023-05-11T05:03:00.960Z,154.98
2023-05-11T05:04:00.922Z,81.45
2023-05-11T05:05:01.004Z,51.81
2023-05-11T05:06:00.978Z,52.18
2023-05-11T05:07:00.999Z,34.44
2023-05-11T05:08:01.033Z,20.49
2023-05-11T05:09:01.062Z,20.58
2023-05-11T05:10:01.058Z,20.65
2023-05-11T05:11:01.119Z,22.98
2023-05-11T05:12:01.108Z,28.82
2023-05-11T05:13:01.273Z,29.46
2023-05-11T05:14:01.217Z,25.94
2023-05-11T05:15:01.184Z,25.28
2023-05-11T05:16:01.249Z,27.54
2023-05-11T05:17:01.271Z,33.17
2023-05-11T05:18:01.282Z,27.96
2023-05-11T05:19:01.479Z,29.79
2023-05-11T05:20:01.420Z,27.85
2023-05-11T05:21:01.339Z,27.60
2023-05-11T05:22:01.453Z,25.03
2023-05-11T05:23:01.424Z,35.55
2023-05-11T05:24:01.478Z,49.03
2023-05-11T05:25:01.503Z,57.10
2023-05-11T05:26:01.564Z,68.60
2023-05-11T05:27:01.562Z,131.28
2023-05-11T05:28:01.604Z,178.97
2023-05-11T05:29:01.610Z,208.25
2023-05-11T05:30:01.698Z,209.70
2023-05-11T05:31:01.762Z,269.11
2023-05-11T05:32:01.754Z,349.74
2023-05-11T05:33:01.781Z,456.69
2023-05-11T05:34:01.810Z,252.36
2023-05-11T05:35:01.869Z,163.86
2023-05-11T05:36:01.860Z,105.42
2023-05-11T05:37:01.870Z,66.09
2023-05-11T05:38:01.933Z,50.77
2023-05-11T05:39:01.961Z,43.59
2023-05-11T05:40:01.956Z,37.75
2023-05-11T05:41:01.995Z,38.94
2023-05-11T05:42:02.015Z,49.68
2023-05-11T05:43:02.075Z,26.89
2023-05-11T05:44:02.140Z,20.31
2023-05-11T05:45:02.186Z,24.92
2023-05-11T05:46:02.243Z,28.33
2023-05-11T05:47:02.201Z,27.06
2023-05-11T05:48:02.314Z,36.23
2023-05-11T05:49:02.280Z,73.68
2023-05-11T05:50:02.319Z,78.61
2023-05-11T05:51:02.320Z,60.88
2023-05-11T05:52:02.362Z,23.68
2023-05-11T05:53:02.389Z,16.62
2023-05-11T05:54:02.407Z,18.92
2023-05-11T05:55:02.444Z,19.17
2023-05-11T05:56:02.514Z,15.21
2023-05-11T05:57:02.539Z,10.85
2023-05-11T05:58:02.574Z,13.69
2023-05-11T05:59:02.582Z,15.90
2023-05-11T06:00:02.641Z,15.43
2023-05-11T06:01:03.168Z,12.53
2023-05-11T06:02:02.664Z,14.40
2023-05-11T06:03:02.766Z,13.93
2023-05-11T06:04:02.828Z,13.02
2023-05-11T06:05:02.902Z,12.02
2023-05-11T06:06:02.766Z,12.45
2023-05-11T06:07:02.798Z,13.96
2023-05-11T06:08:10.534Z,10.67
2023-05-11T06:09:03.874Z,8.50
2023-05-11T06:10:02.870Z,7.30
2023-05-11T06:11:02.843Z,9.82
2023-05-11T06:12:02.812Z,11.45
2023-05-11T06:13:02.820Z,9.78
2023-05-11T06:14:02.799Z,9.57
2023-05-11T06:15:02.792Z,11.03
2023-05-11T06:16:02.815Z,8.85
2023-05-11T06:17:02.806Z,6.69
2023-05-11T06:18:02.831Z,4.39
2023-05-11T06:19:02.956Z,3.32
2023-05-11T06:20:02.752Z,3.22
2023-05-11T06:21:02.752Z,4.33
2023-05-11T06:22:04.373Z,5.11
2023-05-11T06:23:02.713Z,6.99
2023-05-11T06:24:02.734Z,7.39
2023-05-11T06:25:02.693Z,8.40
2023-05-11T06:26:02.749Z,7.42
2023-05-11T06:27:02.738Z,7.71
2023-05-11T06:28:02.717Z,8.75
2023-05-11T06:29:02.732Z,11.67
2023-05-11T06:30:02.695Z,22.12
2023-05-11T06:31:02.714Z,22.72
2023-05-11T06:32:02.737Z,16.44
2023-05-11T06:33:02.736Z,12.36
2023-05-11T06:34:02.687Z,8.68
2023-05-11T06:35:02.735Z,7.56
2023-05-11T06:36:04.842Z,5.61
2023-05-11T06:37:02.628Z,5.93
2023-05-11T06:38:02.659Z,7.44
2023-05-11T06:39:02.731Z,9.16
2023-05-11T06:40:02.743Z,9.28
2023-05-11T06:41:02.781Z,7.97
2023-05-11T06:42:05.094Z,7.41
2023-05-11T06:43:02.763Z,8.37
2023-05-11T06:44:02.747Z,7.76
2023-05-11T06:45:02.854Z,10.47
2023-05-11T06:46:02.793Z,14.68
2023-05-11T06:47:02.742Z,17.16
2023-05-11T06:48:02.724Z,16.56
2023-05-11T06:49:02.730Z,17.29
2023-05-11T06:50:02.723Z,22.31
2023-05-11T06:51:02.699Z,26.84
2023-05-11T06:52:02.660Z,23.12
2023-05-11T06:53:02.671Z,12.99
2023-05-11T06:54:02.681Z,10.92
2023-05-11T06:55:02.688Z,7.75
2023-05-11T06:56:02.664Z,6.61
2023-05-11T06:57:02.677Z,7.37
2023-05-11T06:58:02.630Z,6.17
2023-05-11T06:59:02.666Z,5.58
2023-05-11T07:00:02.692Z,5.97
2023-05-11T07:01:02.673Z,7.21
2023-05-11T07:02:02.657Z,6.73
2023-05-11T07:03:02.692Z,8.77
2023-05-11T07:04:02.622Z,10.49
2023-05-11T07:05:02.668Z,10.07
2023-05-11T07:06:02.643Z,10.13
2023-05-11T07:07:02.598Z,7.95
2023-05-11T07:08:02.571Z,8.74
2023-05-11T07:09:02.595Z,10.03
2023-05-11T07:10:02.610Z,9.54
2023-05-11T07:11:02.573Z,11.16
2023-05-11T07:12:02.557Z,14.00
2023-05-11T07:13:02.580Z,21.28
2023-05-11T07:14:02.524Z,24.92
2023-05-11T07:15:02.529Z,22.58
2023-05-11T07:16:02.546Z,18.55
2023-05-11T07:17:02.625Z,17.04
2023-05-11T07:18:02.535Z,16.54
2023-05-11T07:19:02.534Z,19.11
2023-05-11T07:20:02.517Z,16.03
2023-05-11T07:21:02.490Z,9.89
2023-05-11T07:22:02.586Z,9.99
2023-05-11T07:23:02.563Z,9.35
2023-05-11T07:24:02.596Z,7.33
2023-05-11T07:25:02.638Z,8.03
2023-05-11T07:26:02.651Z,10.49
2023-05-11T07:27:02.671Z,9.33
2023-05-11T07:28:02.700Z,10.48
2023-05-11T07:29:02.719Z,8.62
2023-05-11T07:30:02.720Z,9.19
2023-05-11T07:31:02.772Z,9.00
2023-05-11T07:32:02.797Z,9.22
2023-05-11T07:33:03.206Z,12.21
2023-05-11T07:34:02.816Z,12.05
2023-05-11T07:35:02.925Z,12.15
2023-05-11T07:36:02.937Z,10.60
2023-05-11T07:37:02.935Z,9.84
2023-05-11T07:38:03.017Z,10.75
2023-05-11T07:39:03.050Z,10.55
2023-05-11T07:40:03.043Z,9.89
2023-05-11T07:41:04.677Z,9.54
2023-05-11T07:42:03.069Z,9.74
2023-05-11T07:43:03.096Z,7.62
2023-05-11T07:44:03.119Z,7.46
2023-05-11T07:45:03.059Z,9.81
2023-05-11T07:46:03.131Z,10.21
2023-05-11T07:47:03.059Z,9.83
2023-05-11T07:48:03.057Z,12.88
2023-05-11T07:49:14.380Z,16.74
2023-05-11T07:50:04.020Z,16.91
2023-05-11T07:51:03.075Z,17.71
2023-05-11T07:52:03.019Z,18.98
2023-05-11T07:53:03.012Z,20.37
2023-05-11T07:54:03.037Z,22.75
2023-05-11T07:55:02.983Z,26.61
2023-05-11T07:56:02.984Z,21.84
2023-05-11T07:57:02.993Z,18.06
2023-05-11T07:58:03.015Z,17.06
2023-05-11T07:59:02.969Z,18.21
2023-05-11T08:00:02.984Z,20.87
2023-05-11T08:01:02.952Z,20.66
2023-05-11T08:02:03.018Z,24.18
2023-05-11T08:03:03.017Z,26.12
2023-05-11T08:04:02.977Z,22.32
2023-05-11T08:05:02.928Z,19.36
2023-05-11T08:06:02.980Z,17.26
2023-05-11T08:07:03.012Z,16.24
2023-05-11T08:08:03.058Z,13.56
2023-05-11T08:09:03.089Z,15.40
2023-05-11T08:10:03.199Z,13.63
2023-05-11T08:11:03.188Z,13.93
2023-05-11T08:12:03.188Z,12.49
2023-05-11T08:13:03.231Z,12.51
2023-05-11T08:14:03.226Z,14.30
2023-05-11T08:15:03.265Z,12.11
2023-05-11T08:16:03.333Z,9.24
2023-05-11T08:17:03.279Z,6.38
2023-05-11T08:18:03.343Z,7.44
2023-05-11T08:19:03.389Z,8.02
2023-05-11T08:20:03.410Z,8.02
2023-05-11T08:21:03.378Z,9.84
2023-05-11T08:22:03.435Z,12.32
2023-05-11T08:23:03.483Z,10.95
2023-05-11T08:24:03.466Z,10.72
2023-05-11T08:25:03.471Z,11.53
2023-05-11T08:26:03.518Z,13.29
2023-05-11T08:27:03.567Z,12.64
2023-05-11T08:28:03.551Z,9.84
2023-05-11T08:29:03.599Z,9.92
2023-05-11T08:30:03.613Z,10.83
2023-05-11T08:31:03.603Z,9.82
2023-05-11T08:32:03.683Z,9.14
2023-05-11T08:33:10.397Z,8.45
2023-05-11T08:34:09.813Z,8.42
2023-05-11T08:35:04.792Z,8.48
2023-05-11T08:36:03.604Z,8.69
2023-05-11T08:37:03.628Z,8.70
2023-05-11T08:38:03.661Z,8.90
2023-05-11T08:39:03.619Z,12.81
2023-05-11T08:40:03.609Z,15.47
2023-05-11T08:41:03.630Z,15.13
2023-05-11T08:42:03.604Z,13.90
2023-05-11T08:43:03.592Z,12.71
2023-05-11T08:44:03.578Z,10.95
2023-05-11T08:45:03.597Z,9.81
2023-05-11T08:46:03.614Z,10.59
2023-05-11T08:47:21.263Z,8.95
2023-05-11T08:48:04.617Z,8.71
2023-05-11T08:49:03.539Z,9.15
2023-05-11T08:50:03.556Z,9.71
2023-05-11T08:51:03.549Z,9.62
2023-05-11T08:52:03.559Z,9.71
2023-05-11T08:53:03.505Z,9.92
2023-05-11T08:54:03.503Z,9.36
2023-05-11T08:55:03.523Z,10.67
2023-05-11T08:56:03.502Z,11.51
2023-05-11T08:57:03.492Z,10.77
2023-05-11T08:58:03.461Z,9.94
2023-05-11T08:59:03.476Z,8.04
2023-05-11T09:00:03.525Z,9.16
2023-05-11T09:01:03.551Z,10.33
2023-05-11T09:02:03.532Z,37.39
2023-05-11T09:03:03.685Z,61.29
2023-05-11T09:04:03.668Z,69.02
2023-05-11T09:05:03.773Z,34.79
2023-05-11T09:06:03.748Z,20.35
2023-05-11T09:07:03.764Z,14.97
2023-05-11T09:08:03.768Z,12.78
2023-05-11T09:09:03.820Z,16.00
2023-05-11T09:10:03.842Z,20.17
2023-05-11T09:11:03.896Z,17.39
2023-05-11T09:12:03.915Z,13.18
2023-05-11T09:13:03.974Z,12.94
2023-05-11T09:14:03.992Z,9.91
2023-05-11T09:15:03.992Z,9.12
2023-05-11T09:16:04.170Z,7.43
2023-05-11T09:17:04.193Z,8.91
2023-05-11T09:18:04.072Z,10.96
2023-05-11T09:19:04.233Z,10.75
2023-05-11T09:20:04.080Z,13.47
2023-05-11T09:21:04.165Z,13.25
2023-05-11T09:22:04.170Z,12.14
2023-05-11T09:23:04.195Z,13.74
2023-05-11T09:24:04.256Z,13.78
2023-05-11T09:25:04.300Z,11.40
2023-05-11T09:26:04.332Z,11.96
2023-05-11T09:27:04.320Z,12.37
2023-05-11T09:28:04.378Z,12.79
2023-05-11T09:29:04.435Z,16.12
2023-05-11T09:30:04.430Z,25.24
2023-05-11T09:31:04.512Z,26.18
2023-05-11T09:32:04.449Z,40.69
2023-05-11T09:33:04.539Z,51.71
2023-05-11T09:34:04.559Z,43.55
2023-05-11T09:35:04.658Z,32.51
2023-05-11T09:36:04.608Z,27.51
2023-05-11T09:37:04.674Z,33.34
2023-05-11T09:38:05.061Z,32.24
2023-05-11T09:39:04.732Z,39.21
2023-05-11T09:41:04.755Z,56.87
2023-05-11T09:42:04.781Z,73.94
2023-05-11T09:43:04.755Z,81.30
2023-05-11T09:44:04.732Z,61.85
2023-05-11T09:45:04.710Z,47.08
2023-05-11T09:46:04.790Z,40.67
2023-05-11T09:47:04.683Z,43.59
2023-05-11T09:48:04.819Z,47.30
2023-05-11T09:49:04.700Z,49.08
2023-05-11T09:50:04.689Z,54.18
2023-05-11T09:51:04.715Z,61.59
2023-05-11T09:52:04.673Z,57.46
2023-05-11T09:53:04.681Z,62.79
2023-05-11T09:54:04.634Z,64.53
2023-05-11T09:55:04.629Z,75.59
2023-05-11T09:56:04.648Z,84.82
2023-05-11T09:57:04.637Z,97.70
2023-05-11T09:58:04.613Z,71.21
2023-05-11T09:59:04.611Z,47.54
2023-05-11T10:00:04.622Z,42.64
2023-05-11T10:01:04.644Z,31.46
2023-05-11T10:02:04.661Z,26.83
2023-05-11T10:03:04.771Z,26.74
2023-05-11T10:04:17.884Z,33.66
2023-05-11T10:05:05.556Z,33.94
2023-05-11T10:06:04.613Z,35.56
2023-05-11T10:07:04.612Z,35.54
2023-05-11T10:08:04.547Z,28.69
2023-05-11T10:09:04.552Z,21.41
2023-05-11T10:10:04.509Z,14.32
2023-05-11T10:11:04.521Z,12.09
2023-05-11T10:12:04.525Z,10.18
2023-05-11T10:13:04.688Z,11.56
2023-05-11T10:14:04.552Z,15.46
2023-05-11T10:15:04.513Z,17.15
2023-05-11T10:16:04.499Z,20.48
2023-05-11T10:17:04.490Z,24.41
2023-05-11T10:18:04.542Z,20.67
2023-05-11T10:19:04.536Z,17.60
2023-05-11T10:20:04.484Z,19.60
2023-05-11T10:21:04.485Z,15.37
2023-05-11T10:22:04.539Z,12.61
2023-05-11T10:23:04.501Z,14.36
2023-05-11T10:24:04.585Z,19.45
2023-05-11T10:25:04.632Z,23.36
2023-05-11T10:26:04.670Z,29.23
2023-05-11T10:27:04.737Z,30.34
2023-05-11T10:28:04.730Z,30.72
2023-05-11T10:29:04.795Z,46.45
2023-05-11T10:30:04.844Z,53.75
2023-05-11T10:31:04.840Z,61.74
2023-05-11T10:32:04.873Z,62.48
2023-05-11T10:33:04.889Z,68.85
2023-05-11T10:34:04.915Z,87.42
2023-05-11T10:35:04.915Z,101.31
2023-05-11T10:36:04.945Z,130.58
2023-05-11T10:37:04.944Z,118.44
2023-05-11T10:38:04.958Z,116.94
2023-05-11T10:39:05.500Z,106.10
2023-05-11T10:40:05.058Z,92.92
2023-05-11T10:41:05.116Z,115.90
2023-05-11T10:42:05.127Z,152.17
2023-05-11T10:43:05.173Z,104.99
2023-05-11T10:44:05.198Z,122.06
2023-05-11T10:45:05.204Z,122.03
2023-05-11T10:46:05.336Z,145.22
2023-05-11T10:47:05.295Z,139.36
2023-05-11T10:48:05.416Z,108.07
2023-05-11T10:49:05.367Z,59.58
2023-05-11T10:50:05.409Z,65.40
2023-05-11T10:51:05.480Z,53.26
2023-05-11T10:52:05.481Z,55.61
2023-05-11T10:53:05.526Z,47.03
2023-05-11T10:54:05.620Z,53.33
2023-05-11T10:55:05.598Z,67.00
2023-05-11T10:56:05.617Z,70.44
2023-05-11T10:57:05.647Z,63.56
2023-05-11T10:58:05.650Z,60.55
2023-05-11T10:59:05.694Z,68.87
2023-05-11T11:00:05.766Z,89.21
2023-05-11T11:01:05.885Z,121.87
2023-05-11T11:02:05.755Z,114.72
2023-05-11T11:03:05.829Z,91.22
2023-05-11T11:04:05.809Z,92.31
2023-05-11T11:05:05.880Z,79.41
2023-05-11T11:06:05.907Z,92.96
2023-05-11T11:07:05.900Z,96.94
2023-05-11T11:08:05.897Z,58.83
2023-05-11T11:09:05.899Z,42.93
2023-05-11T11:10:05.896Z,33.25
2023-05-11T11:11:06.699Z,21.47
2023-05-11T11:12:05.970Z,18.47
2023-05-11T11:13:05.956Z,13.93
2023-05-11T11:14:05.996Z,11.83
2023-05-11T11:15:05.991Z,16.33
2023-05-11T11:16:06.043Z,18.56
2023-05-11T11:17:06.082Z,18.02
2023-05-11T11:18:06.076Z,17.43
2023-05-11T11:19:06.163Z,9.54
2023-05-11T11:20:06.092Z,6.95
2023-05-11T11:21:06.101Z,6.59
2023-05-11T11:22:06.083Z,5.57
2023-05-11T11:23:06.331Z,5.19
2023-05-11T11:24:06.239Z,2.88
2023-05-11T11:25:06.155Z,1.95
2023-05-11T11:26:06.138Z,2.06
2023-05-11T11:27:06.186Z,3.49
2023-05-11T11:28:06.182Z,4.82
2023-05-11T11:29:06.234Z,4.94
2023-05-11T11:30:06.269Z,3.96
2023-05-11T11:31:06.380Z,2.91
2023-05-11T11:32:06.367Z,2.72
2023-05-11T11:33:06.423Z,2.32
2023-05-11T11:34:06.415Z,1.94
2023-05-11T11:35:06.412Z,2.38
2023-05-11T11:36:06.463Z,2.97
2023-05-11T11:37:06.554Z,4.71
2023-05-11T11:38:06.458Z,3.34
2023-05-11T11:39:06.495Z,2.93
2023-05-11T11:40:14.766Z,3.11
2023-05-11T11:41:07.543Z,3.16
2023-05-11T11:42:06.519Z,3.53
2023-05-11T11:43:06.481Z,4.10
2023-05-11T11:44:06.526Z,3.67
2023-05-11T11:45:06.481Z,3.82
2023-05-11T11:46:06.517Z,4.18
2023-05-11T11:47:06.469Z,7.71
2023-05-11T11:48:06.498Z,11.27
2023-05-11T11:49:06.449Z,19.68
2023-05-11T11:50:06.459Z,16.58
2023-05-11T11:51:06.423Z,13.77
2023-05-11T11:52:06.422Z,21.39
2023-05-11T11:53:06.413Z,24.41
2023-05-11T11:54:06.451Z,17.21
2023-05-11T11:55:06.425Z,14.35
2023-05-11T11:56:06.429Z,29.61
2023-05-11T11:57:06.460Z,29.29
2023-05-11T11:58:06.570Z,18.45
2023-05-11T11:59:06.580Z,15.27
2023-05-11T12:00:06.642Z,26.55
2023-05-11T12:01:06.626Z,11.76
2023-05-11T12:02:06.677Z,9.22
2023-05-11T12:03:06.819Z,9.25
2023-05-11T12:04:06.848Z,9.08
2023-05-11T12:05:06.955Z,8.53
2023-05-11T12:06:06.875Z,17.01
2023-05-11T12:07:06.874Z,383.03
2023-05-11T12:08:06.831Z,556.33
2023-05-11T12:09:07.726Z,87.07
2023-05-11T12:10:07.002Z,39.25
2023-05-11T12:11:06.920Z,19.64
2023-05-11T12:12:06.944Z,12.85
2023-05-11T12:13:07.002Z,9.11
2023-05-11T12:14:06.968Z,11.97
2023-05-11T12:15:06.948Z,13.55
2023-05-11T12:16:07.010Z,19.12
2023-05-11T12:17:06.988Z,13.02
2023-05-11T12:18:07.036Z,9.78
2023-05-11T12:19:07.090Z,5.47
2023-05-11T12:20:07.043Z,7.07
2023-05-11T12:21:07.101Z,7.51
2023-05-11T12:22:07.121Z,8.07
2023-05-11T12:23:07.119Z,9.08
2023-05-11T12:24:07.135Z,9.94
2023-05-11T12:25:07.143Z,16.83
2023-05-11T12:26:07.191Z,22.69
2023-05-11T12:27:07.195Z,28.96
2023-05-11T12:28:07.240Z,35.14
2023-05-11T12:29:07.263Z,18.60
2023-05-11T12:30:07.320Z,21.59
2023-05-11T12:31:07.278Z,19.61
2023-05-11T12:32:07.375Z,14.70
2023-05-11T12:33:07.374Z,21.34
2023-05-11T12:34:07.338Z,69.16
2023-05-11T12:35:07.408Z,94.81
2023-05-11T12:36:07.455Z,40.28
2023-05-11T12:37:07.481Z,22.05
2023-05-11T12:38:07.480Z,34.68
2023-05-11T12:39:07.521Z,25.06
2023-05-11T12:40:07.524Z,15.42
2023-05-11T12:41:07.566Z,26.10
2023-05-11T12:42:07.575Z,30.01
2023-05-11T12:43:07.643Z,15.69
2023-05-11T12:44:07.571Z,14.69
2023-05-11T12:45:07.626Z,29.21
2023-05-11T12:46:07.689Z,36.84
2023-05-11T12:47:07.631Z,36.22
2023-05-11T12:48:07.743Z,30.83
2023-05-11T12:49:07.692Z,44.26
2023-05-11T12:50:07.744Z,36.22
2023-05-11T12:51:07.722Z,35.02
2023-05-11T12:52:07.885Z,65.70
2023-05-11T12:53:07.827Z,41.18
2023-05-11T12:54:07.814Z,32.53
2023-05-11T12:55:07.873Z,36.89
2023-05-11T12:56:07.890Z,36.72
2023-05-11T12:57:07.985Z,28.03
2023-05-11T12:58:07.970Z,16.83
2023-05-11T12:59:08.021Z,15.39
2023-05-11T13:00:08.085Z,22.09
2023-05-11T13:01:08.100Z,40.02
2023-05-11T13:02:08.156Z,46.73
2023-05-11T13:03:08.323Z,33.79